sensor_id;sensor_type;location;lat;lon;timestamp;P1;durP1;ratioP1;P2;durP2;ratioP2
28613;SDS011;15806;53.548;9.964;2023-02-14T00:01:09;41.93;;;12.23;;
28613;SDS011;15806;53.548;9.964;2023-02-14T00:02:50;41.83;;;13.25;;
28613;SDS011;15806;53.548;9.964;2023-02-14T00:04:31;39.23;;;13.17;;
28613;SDS011;15806;53.548;9.964;2023-02-14T00:06:12;38.88;;;13.13;;
28613;SDS011;15806;53.548;9.964;2023-02-14T00:09:34;37.70;;;13.02;;
28613;SDS011;15806;53.548;9.964;2023-02-14T00:11:14;42.63;;;14.00;;
28613;SDS011;15806;53.548;9.964;2023-02-14T00:12:55;42.47;;;14.80;;
28613;SDS011;15806;53.548;9.964;2023-02-14T00:14:35;38.17;;;13.40;;
28613;SDS011;15806;53.548;9.964;2023-02-14T00:16:16;42.60;;;14.17;;
28613;SDS011;15806;53.548;9.964;2023-02-14T00:17:57;35.70;;;11.53;;
28613;SDS011;15806;53.548;9.964;2023-02-14T00:19:37;36.83;;;13.00;;
28613;SDS011;15806;53.548;9.964;2023-02-14T00:21:18;44.93;;;13.60;;
28613;SDS011;15806;53.548;9.964;2023-02-14T00:22:58;43.03;;;13.07;;
28613;SDS011;15806;53.548;9.964;2023-02-14T00:24:39;36.70;;;12.13;;
28613;SDS011;15806;53.548;9.964;2023-02-14T00:26:19;45.57;;;14.13;;
28613;SDS011;15806;53.548;9.964;2023-02-14T00:28:00;41.83;;;13.37;;
28613;SDS011;15806;53.548;9.964;2023-02-14T00:29:40;35.30;;;11.60;;
28613;SDS011;15806;53.548;9.964;2023-02-14T00:31:21;38.33;;;12.97;;
28613;SDS011;15806;53.548;9.964;2023-02-14T00:33:01;45.47;;;14.03;;
28613;SDS011;15806;53.548;9.964;2023-02-14T00:34:42;39.17;;;13.17;;
28613;SDS011;15806;53.548;9.964;2023-02-14T00:36:23;42.77;;;14.37;;
28613;SDS011;15806;53.548;9.964;2023-02-14T00:38:04;40.03;;;12.90;;
28613;SDS011;15806;53.548;9.964;2023-02-14T00:39:44;37.53;;;12.27;;
28613;SDS011;15806;53.548;9.964;2023-02-14T00:41:28;37.33;;;13.23;;
28613;SDS011;15806;53.548;9.964;2023-02-14T00:43:08;37.47;;;13.80;;
28613;SDS011;15806;53.548;9.964;2023-02-14T00:44:49;38.47;;;14.20;;
28613;SDS011;15806;53.548;9.964;2023-02-14T00:46:29;40.77;;;13.30;;
28613;SDS011;15806;53.548;9.964;2023-02-14T00:48:10;43.20;;;13.60;;
28613;SDS011;15806;53.548;9.964;2023-02-14T00:49:50;38.83;;;13.17;;
28613;SDS011;15806;53.548;9.964;2023-02-14T00:51:31;40.53;;;12.57;;
28613;SDS011;15806;53.548;9.964;2023-02-14T00:53:11;42.50;;;14.17;;
28613;SDS011;15806;53.548;9.964;2023-02-14T00:54:52;43.67;;;14.63;;
28613;SDS011;15806;53.548;9.964;2023-02-14T00:56:33;43.23;;;13.97;;
28613;SDS011;15806;53.548;9.964;2023-02-14T00:58:13;41.93;;;13.83;;
28613;SDS011;15806;53.548;9.964;2023-02-14T00:59:54;42.60;;;14.13;;
28613;SDS011;15806;53.548;9.964;2023-02-14T01:01:34;45.33;;;15.13;;
28613;SDS011;15806;53.548;9.964;2023-02-14T01:04:56;37.10;;;12.00;;
28613;SDS011;15806;53.548;9.964;2023-02-14T01:06:37;47.17;;;14.77;;
28613;SDS011;15806;53.548;9.964;2023-02-14T01:08:18;41.17;;;12.93;;
28613;SDS011;15806;53.548;9.964;2023-02-14T01:09:58;47.17;;;13.80;;
28613;SDS011;15806;53.548;9.964;2023-02-14T01:11:39;41.90;;;12.90;;
28613;SDS011;15806;53.548;9.964;2023-02-14T01:13:20;40.30;;;13.03;;
28613;SDS011;15806;53.548;9.964;2023-02-14T01:15:00;39.35;;;13.05;;
28613;SDS011;15806;53.548;9.964;2023-02-14T01:16:41;39.47;;;14.27;;
28613;SDS011;15806;53.548;9.964;2023-02-14T01:18:22;46.83;;;13.90;;
28613;SDS011;15806;53.548;9.964;2023-02-14T01:20:02;41.60;;;13.53;;
28613;SDS011;15806;53.548;9.964;2023-02-14T01:21:43;42.22;;;14.40;;
28613;SDS011;15806;53.548;9.964;2023-02-14T01:23:24;42.63;;;13.60;;
28613;SDS011;15806;53.548;9.964;2023-02-14T01:25:04;41.63;;;12.97;;
28613;SDS011;15806;53.548;9.964;2023-02-14T01:26:45;42.67;;;13.95;;
28613;SDS011;15806;53.548;9.964;2023-02-14T01:28:26;41.70;;;13.17;;
28613;SDS011;15806;53.548;9.964;2023-02-14T01:30:06;41.73;;;14.00;;
28613;SDS011;15806;53.548;9.964;2023-02-14T01:31:47;42.05;;;13.68;;
28613;SDS011;15806;53.548;9.964;2023-02-14T01:33:28;41.37;;;14.50;;
28613;SDS011;15806;53.548;9.964;2023-02-14T01:35:08;43.43;;;14.90;;
28613;SDS011;15806;53.548;9.964;2023-02-14T01:36:49;37.03;;;12.73;;
28613;SDS011;15806;53.548;9.964;2023-02-14T01:38:30;40.63;;;13.17;;
28613;SDS011;15806;53.548;9.964;2023-02-14T01:40:12;42.50;;;14.32;;
28613;SDS011;15806;53.548;9.964;2023-02-14T01:41:53;45.22;;;15.45;;
28613;SDS011;15806;53.548;9.964;2023-02-14T01:45:38;39.05;;;13.38;;
28613;SDS011;15806;53.548;9.964;2023-02-14T01:47:18;38.20;;;14.97;;
28613;SDS011;15806;53.548;9.964;2023-02-14T01:49:02;40.38;;;14.07;;
28613;SDS011;15806;53.548;9.964;2023-02-14T01:50:49;38.83;;;13.95;;
28613;SDS011;15806;53.548;9.964;2023-02-14T01:52:36;44.92;;;14.85;;
28613;SDS011;15806;53.548;9.964;2023-02-14T01:54:28;41.40;;;14.40;;
28613;SDS011;15806;53.548;9.964;2023-02-14T01:56:12;38.80;;;13.15;;
28613;SDS011;15806;53.548;9.964;2023-02-14T01:58:05;43.85;;;14.98;;
28613;SDS011;15806;53.548;9.964;2023-02-14T02:01:40;39.83;;;13.30;;
28613;SDS011;15806;53.548;9.964;2023-02-14T02:03:31;42.42;;;13.98;;
28613;SDS011;15806;53.548;9.964;2023-02-14T02:05:14;45.65;;;14.52;;
28613;SDS011;15806;53.548;9.964;2023-02-14T02:06:58;43.30;;;14.60;;
28613;SDS011;15806;53.548;9.964;2023-02-14T02:08:49;40.47;;;13.13;;
28613;SDS011;15806;53.548;9.964;2023-02-14T02:10:32;41.25;;;14.27;;
28613;SDS011;15806;53.548;9.964;2023-02-14T02:12:12;43.17;;;15.10;;
28613;SDS011;15806;53.548;9.964;2023-02-14T02:13:54;37.37;;;12.60;;
28613;SDS011;15806;53.548;9.964;2023-02-14T02:15:38;44.55;;;14.18;;
28613;SDS011;15806;53.548;9.964;2023-02-14T02:23:56;43.25;;;14.75;;
28613;SDS011;15806;53.548;9.964;2023-02-14T02:31:59;43.63;;;13.90;;
28613;SDS011;15806;53.548;9.964;2023-02-14T02:48:04;41.30;;;13.70;;
28613;SDS011;15806;53.548;9.964;2023-02-14T02:51:46;43.40;;;14.38;;
28613;SDS011;15806;53.548;9.964;2023-02-14T02:53:39;40.45;;;14.18;;
28613;SDS011;15806;53.548;9.964;2023-02-14T02:55:29;49.55;;;15.38;;
28613;SDS011;15806;53.548;9.964;2023-02-14T02:57:18;44.33;;;13.68;;
28613;SDS011;15806;53.548;9.964;2023-02-14T03:01:07;42.85;;;14.48;;
28613;SDS011;15806;53.548;9.964;2023-02-14T03:02:51;43.40;;;14.18;;
28613;SDS011;15806;53.548;9.964;2023-02-14T03:04:34;42.67;;;13.48;;
28613;SDS011;15806;53.548;9.964;2023-02-14T03:06:18;43.75;;;13.93;;
28613;SDS011;15806;53.548;9.964;2023-02-14T03:07:59;43.03;;;13.90;;
28613;SDS011;15806;53.548;9.964;2023-02-14T03:11:20;40.50;;;12.90;;
28613;SDS011;15806;53.548;9.964;2023-02-14T03:16:59;49.63;;;14.80;;
28613;SDS011;15806;53.548;9.964;2023-02-14T03:22:48;48.10;;;15.52;;
28613;SDS011;15806;53.548;9.964;2023-02-14T03:26:46;48.33;;;14.47;;
28613;SDS011;15806;53.548;9.964;2023-02-14T03:33:01;47.03;;;16.13;;
28613;SDS011;15806;53.548;9.964;2023-02-14T03:34:53;43.28;;;14.95;;
28613;SDS011;15806;53.548;9.964;2023-02-14T03:36:39;43.58;;;14.43;;
28613;SDS011;15806;53.548;9.964;2023-02-14T03:38:27;45.20;;;15.75;;
28613;SDS011;15806;53.548;9.964;2023-02-14T03:42:24;52.55;;;17.23;;
28613;SDS011;15806;53.548;9.964;2023-02-14T03:44:08;47.63;;;14.55;;
28613;SDS011;15806;53.548;9.964;2023-02-14T03:45:53;47.85;;;15.02;;
28613;SDS011;15806;53.548;9.964;2023-02-14T03:47:55;50.58;;;16.45;;
28613;SDS011;15806;53.548;9.964;2023-02-14T03:49:52;45.60;;;15.48;;
28613;SDS011;15806;53.548;9.964;2023-02-14T03:51:36;41.75;;;14.38;;
28613;SDS011;15806;53.548;9.964;2023-02-14T03:53:19;46.67;;;14.80;;
28613;SDS011;15806;53.548;9.964;2023-02-14T03:55:04;41.38;;;13.52;;
28613;SDS011;15806;53.548;9.964;2023-02-14T03:56:47;43.47;;;14.23;;
28613;SDS011;15806;53.548;9.964;2023-02-14T03:58:39;48.45;;;15.07;;
28613;SDS011;15806;53.548;9.964;2023-02-14T04:00:31;48.85;;;14.20;;
28613;SDS011;15806;53.548;9.964;2023-02-14T04:02:28;47.28;;;14.63;;
28613;SDS011;15806;53.548;9.964;2023-02-14T04:04:17;48.42;;;15.18;;
28613;SDS011;15806;53.548;9.964;2023-02-14T04:06:00;50.78;;;14.38;;
28613;SDS011;15806;53.548;9.964;2023-02-14T04:07:45;45.37;;;14.97;;
28613;SDS011;15806;53.548;9.964;2023-02-14T04:09:30;46.65;;;14.68;;
28613;SDS011;15806;53.548;9.964;2023-02-14T04:11:10;44.07;;;14.67;;
28613;SDS011;15806;53.548;9.964;2023-02-14T04:12:52;50.10;;;14.45;;
28613;SDS011;15806;53.548;9.964;2023-02-14T04:14:32;48.70;;;13.85;;
28613;SDS011;15806;53.548;9.964;2023-02-14T04:16:13;47.00;;;15.17;;
28613;SDS011;15806;53.548;9.964;2023-02-14T04:17:53;46.27;;;14.57;;
28613;SDS011;15806;53.548;9.964;2023-02-14T04:19:34;52.43;;;14.53;;
28613;SDS011;15806;53.548;9.964;2023-02-14T04:21:15;51.80;;;16.37;;
28613;SDS011;15806;53.548;9.964;2023-02-14T04:22:56;47.05;;;14.77;;
28613;SDS011;15806;53.548;9.964;2023-02-14T04:24:36;52.70;;;17.40;;
28613;SDS011;15806;53.548;9.964;2023-02-14T04:26:17;49.03;;;15.33;;
28613;SDS011;15806;53.548;9.964;2023-02-14T04:27:57;49.00;;;14.50;;
28613;SDS011;15806;53.548;9.964;2023-02-14T04:29:42;50.20;;;16.60;;
28613;SDS011;15806;53.548;9.964;2023-02-14T04:31:27;53.13;;;16.20;;
28613;SDS011;15806;53.548;9.964;2023-02-14T04:33:07;48.10;;;15.07;;
28613;SDS011;15806;53.548;9.964;2023-02-14T04:34:48;54.10;;;15.10;;
28613;SDS011;15806;53.548;9.964;2023-02-14T04:36:29;46.63;;;14.97;;
28613;SDS011;15806;53.548;9.964;2023-02-14T04:38:09;54.13;;;15.23;;
28613;SDS011;15806;53.548;9.964;2023-02-14T04:39:50;51.63;;;16.93;;
28613;SDS011;15806;53.548;9.964;2023-02-14T04:41:30;45.83;;;14.03;;
28613;SDS011;15806;53.548;9.964;2023-02-14T04:43:11;49.03;;;13.87;;
28613;SDS011;15806;53.548;9.964;2023-02-14T04:44:51;53.23;;;16.60;;
28613;SDS011;15806;53.548;9.964;2023-02-14T04:46:32;55.30;;;16.83;;
28613;SDS011;15806;53.548;9.964;2023-02-14T04:48:13;49.40;;;16.47;;
28613;SDS011;15806;53.548;9.964;2023-02-14T04:49:53;48.10;;;15.10;;
28613;SDS011;15806;53.548;9.964;2023-02-14T04:51:34;54.87;;;17.40;;
28613;SDS011;15806;53.548;9.964;2023-02-14T04:53:14;48.17;;;15.23;;
28613;SDS011;15806;53.548;9.964;2023-02-14T04:54:55;48.80;;;15.67;;
28613;SDS011;15806;53.548;9.964;2023-02-14T04:56:35;47.37;;;14.53;;
28613;SDS011;15806;53.548;9.964;2023-02-14T04:58:16;48.30;;;15.37;;
28613;SDS011;15806;53.548;9.964;2023-02-14T04:59:57;55.67;;;15.87;;
28613;SDS011;15806;53.548;9.964;2023-02-14T05:01:37;47.37;;;14.70;;
28613;SDS011;15806;53.548;9.964;2023-02-14T05:03:18;50.57;;;15.60;;
28613;SDS011;15806;53.548;9.964;2023-02-14T05:04:58;48.00;;;15.10;;
28613;SDS011;15806;53.548;9.964;2023-02-14T05:06:39;46.90;;;13.80;;
28613;SDS011;15806;53.548;9.964;2023-02-14T05:08:19;44.63;;;13.93;;
28613;SDS011;15806;53.548;9.964;2023-02-14T05:10:00;52.50;;;16.60;;
28613;SDS011;15806;53.548;9.964;2023-02-14T05:11:41;47.30;;;15.38;;
28613;SDS011;15806;53.548;9.964;2023-02-14T05:13:21;50.57;;;16.87;;
28613;SDS011;15806;53.548;9.964;2023-02-14T05:15:02;43.10;;;13.93;;
28613;SDS011;15806;53.548;9.964;2023-02-14T05:16:43;50.45;;;16.35;;
28613;SDS011;15806;53.548;9.964;2023-02-14T05:18:24;56.20;;;16.60;;
28613;SDS011;15806;53.548;9.964;2023-02-14T05:20:05;59.83;;;17.45;;
28613;SDS011;15806;53.548;9.964;2023-02-14T05:21:47;48.67;;;15.43;;
28613;SDS011;15806;53.548;9.964;2023-02-14T05:23:28;52.53;;;15.03;;
28613;SDS011;15806;53.548;9.964;2023-02-14T05:25:08;46.93;;;14.40;;
28613;SDS011;15806;53.548;9.964;2023-02-14T05:26:49;47.63;;;16.03;;
28613;SDS011;15806;53.548;9.964;2023-02-14T05:28:29;48.33;;;14.67;;
28613;SDS011;15806;53.548;9.964;2023-02-14T05:30:10;48.03;;;15.32;;
28613;SDS011;15806;53.548;9.964;2023-02-14T05:31:52;45.72;;;14.75;;
28613;SDS011;15806;53.548;9.964;2023-02-14T05:33:32;40.50;;;13.67;;
28613;SDS011;15806;53.548;9.964;2023-02-14T05:35:13;49.57;;;15.47;;
28613;SDS011;15806;53.548;9.964;2023-02-14T05:36:53;45.90;;;16.23;;
28613;SDS011;15806;53.548;9.964;2023-02-14T05:38:34;45.00;;;14.47;;
28613;SDS011;15806;53.548;9.964;2023-02-14T05:40:14;49.07;;;15.80;;
28613;SDS011;15806;53.548;9.964;2023-02-14T05:41:55;49.53;;;14.43;;
28613;SDS011;15806;53.548;9.964;2023-02-14T05:43:35;41.17;;;15.83;;
28613;SDS011;15806;53.548;9.964;2023-02-14T05:45:16;48.33;;;16.27;;
28613;SDS011;15806;53.548;9.964;2023-02-14T05:46:57;43.23;;;13.87;;
28613;SDS011;15806;53.548;9.964;2023-02-14T05:48:37;46.60;;;15.83;;
28613;SDS011;15806;53.548;9.964;2023-02-14T05:50:18;40.17;;;12.50;;
28613;SDS011;15806;53.548;9.964;2023-02-14T05:51:59;59.72;;;19.25;;
28613;SDS011;15806;53.548;9.964;2023-02-14T05:53:39;46.53;;;15.90;;
28613;SDS011;15806;53.548;9.964;2023-02-14T05:55:20;47.33;;;15.17;;
28613;SDS011;15806;53.548;9.964;2023-02-14T05:57:00;47.27;;;13.87;;
28613;SDS011;15806;53.548;9.964;2023-02-14T05:58:41;42.37;;;13.13;;
28613;SDS011;15806;53.548;9.964;2023-02-14T06:00:22;44.33;;;14.35;;
28613;SDS011;15806;53.548;9.964;2023-02-14T06:02:03;47.90;;;14.60;;
28613;SDS011;15806;53.548;9.964;2023-02-14T06:03:43;48.53;;;16.07;;
28613;SDS011;15806;53.548;9.964;2023-02-14T06:05:24;45.03;;;14.67;;
28613;SDS011;15806;53.548;9.964;2023-02-14T06:07:05;50.00;;;15.88;;
28613;SDS011;15806;53.548;9.964;2023-02-14T06:08:45;42.80;;;14.63;;
28613;SDS011;15806;53.548;9.964;2023-02-14T06:10:26;47.83;;;13.53;;
28613;SDS011;15806;53.548;9.964;2023-02-14T06:12:06;42.90;;;14.03;;
28613;SDS011;15806;53.548;9.964;2023-02-14T06:13:47;46.23;;;15.37;;
28613;SDS011;15806;53.548;9.964;2023-02-14T06:15:27;36.23;;;12.47;;
28613;SDS011;15806;53.548;9.964;2023-02-14T06:17:08;44.23;;;13.37;;
28613;SDS011;15806;53.548;9.964;2023-02-14T06:18:49;46.33;;;14.15;;
28613;SDS011;15806;53.548;9.964;2023-02-14T06:20:29;44.60;;;13.87;;
28613;SDS011;15806;53.548;9.964;2023-02-14T06:22:10;44.60;;;15.10;;
28613;SDS011;15806;53.548;9.964;2023-02-14T06:23:50;56.43;;;16.97;;
28613;SDS011;15806;53.548;9.964;2023-02-14T06:25:31;49.43;;;15.10;;
28613;SDS011;15806;53.548;9.964;2023-02-14T06:27:11;48.73;;;15.20;;
28613;SDS011;15806;53.548;9.964;2023-02-14T06:28:53;40.47;;;14.27;;
28613;SDS011;15806;53.548;9.964;2023-02-14T06:30:34;45.55;;;13.00;;
28613;SDS011;15806;53.548;9.964;2023-02-14T06:32:15;36.77;;;12.33;;
28613;SDS011;15806;53.548;9.964;2023-02-14T06:33:55;52.47;;;15.23;;
28613;SDS011;15806;53.548;9.964;2023-02-14T06:35:36;52.93;;;15.10;;
28613;SDS011;15806;53.548;9.964;2023-02-14T06:37:16;47.83;;;14.90;;
28613;SDS011;15806;53.548;9.964;2023-02-14T06:38:57;44.00;;;13.27;;
28613;SDS011;15806;53.548;9.964;2023-02-14T06:40:37;43.17;;;13.50;;
28613;SDS011;15806;53.548;9.964;2023-02-14T06:42:18;48.07;;;13.93;;
28613;SDS011;15806;53.548;9.964;2023-02-14T06:43:58;45.03;;;16.83;;
28613;SDS011;15806;53.548;9.964;2023-02-14T06:45:39;45.20;;;14.83;;
28613;SDS011;15806;53.548;9.964;2023-02-14T06:47:20;48.03;;;14.47;;
28613;SDS011;15806;53.548;9.964;2023-02-14T06:49:00;45.80;;;14.13;;
28613;SDS011;15806;53.548;9.964;2023-02-14T06:50:41;49.30;;;16.23;;
28613;SDS011;15806;53.548;9.964;2023-02-14T06:52:21;40.83;;;13.57;;
28613;SDS011;15806;53.548;9.964;2023-02-14T06:54:02;38.23;;;14.60;;
28613;SDS011;15806;53.548;9.964;2023-02-14T06:55:42;46.10;;;13.60;;
28613;SDS011;15806;53.548;9.964;2023-02-14T06:57:23;41.97;;;15.37;;
28613;SDS011;15806;53.548;9.964;2023-02-14T06:59:03;40.53;;;13.23;;
28613;SDS011;15806;53.548;9.964;2023-02-14T07:00:45;41.90;;;12.57;;
28613;SDS011;15806;53.548;9.964;2023-02-14T07:02:26;46.97;;;13.73;;
28613;SDS011;15806;53.548;9.964;2023-02-14T07:04:06;51.60;;;15.97;;
28613;SDS011;15806;53.548;9.964;2023-02-14T07:05:47;39.83;;;11.57;;
28613;SDS011;15806;53.548;9.964;2023-02-14T07:07:27;42.53;;;13.23;;
28613;SDS011;15806;53.548;9.964;2023-02-14T07:09:08;41.87;;;13.23;;
28613;SDS011;15806;53.548;9.964;2023-02-14T07:10:49;48.13;;;14.20;;
28613;SDS011;15806;53.548;9.964;2023-02-14T07:12:29;53.20;;;16.17;;
28613;SDS011;15806;53.548;9.964;2023-02-14T07:14:10;51.43;;;12.63;;
28613;SDS011;15806;53.548;9.964;2023-02-14T07:15:51;44.03;;;15.13;;
28613;SDS011;15806;53.548;9.964;2023-02-14T07:17:31;44.13;;;13.13;;
28613;SDS011;15806;53.548;9.964;2023-02-14T07:19:12;47.27;;;14.37;;
28613;SDS011;15806;53.548;9.964;2023-02-14T07:20:52;35.43;;;12.37;;
28613;SDS011;15806;53.548;9.964;2023-02-14T07:22:33;42.50;;;13.50;;
28613;SDS011;15806;53.548;9.964;2023-02-14T07:24:14;49.08;;;13.68;;
28613;SDS011;15806;53.548;9.964;2023-02-14T07:25:55;46.97;;;14.30;;
28613;SDS011;15806;53.548;9.964;2023-02-14T07:27:35;39.60;;;12.98;;
28613;SDS011;15806;53.548;9.964;2023-02-14T07:29:16;41.60;;;13.00;;
28613;SDS011;15806;53.548;9.964;2023-02-14T07:31:00;42.27;;;13.40;;
28613;SDS011;15806;53.548;9.964;2023-02-14T07:32:40;40.05;;;12.70;;
28613;SDS011;15806;53.548;9.964;2023-02-14T07:34:21;39.80;;;12.60;;
28613;SDS011;15806;53.548;9.964;2023-02-14T07:36:08;45.43;;;13.40;;
28613;SDS011;15806;53.548;9.964;2023-02-14T07:37:49;37.30;;;13.13;;
28613;SDS011;15806;53.548;9.964;2023-02-14T07:39:30;44.15;;;13.65;;
28613;SDS011;15806;53.548;9.964;2023-02-14T07:41:10;40.87;;;12.47;;
28613;SDS011;15806;53.548;9.964;2023-02-14T07:42:52;41.63;;;13.50;;
28613;SDS011;15806;53.548;9.964;2023-02-14T07:44:36;38.72;;;12.20;;
28613;SDS011;15806;53.548;9.964;2023-02-14T07:46:17;40.88;;;13.98;;
28613;SDS011;15806;53.548;9.964;2023-02-14T07:47:57;32.97;;;11.30;;
28613;SDS011;15806;53.548;9.964;2023-02-14T07:49:38;41.90;;;14.00;;
28613;SDS011;15806;53.548;9.964;2023-02-14T07:51:18;41.00;;;12.40;;
28613;SDS011;15806;53.548;9.964;2023-02-14T07:52:59;35.40;;;12.60;;
28613;SDS011;15806;53.548;9.964;2023-02-14T07:54:39;46.47;;;15.03;;
28613;SDS011;15806;53.548;9.964;2023-02-14T07:56:20;35.20;;;11.80;;
28613;SDS011;15806;53.548;9.964;2023-02-14T07:58:01;37.77;;;12.43;;
28613;SDS011;15806;53.548;9.964;2023-02-14T07:59:41;38.10;;;12.40;;
28613;SDS011;15806;53.548;9.964;2023-02-14T08:01:22;41.40;;;11.57;;
28613;SDS011;15806;53.548;9.964;2023-02-14T08:03:02;39.83;;;12.57;;
28613;SDS011;15806;53.548;9.964;2023-02-14T08:04:43;37.70;;;13.83;;
28613;SDS011;15806;53.548;9.964;2023-02-14T08:06:23;38.33;;;12.30;;
28613;SDS011;15806;53.548;9.964;2023-02-14T08:08:04;36.60;;;11.97;;
28613;SDS011;15806;53.548;9.964;2023-02-14T08:09:44;36.67;;;11.83;;
28613;SDS011;15806;53.548;9.964;2023-02-14T08:11:25;42.83;;;12.83;;
28613;SDS011;15806;53.548;9.964;2023-02-14T08:13:05;33.37;;;11.10;;
28613;SDS011;15806;53.548;9.964;2023-02-14T08:14:46;31.47;;;10.57;;
28613;SDS011;15806;53.548;9.964;2023-02-14T08:16:26;37.60;;;12.13;;
28613;SDS011;15806;53.548;9.964;2023-02-14T08:18:07;33.03;;;11.10;;
28613;SDS011;15806;53.548;9.964;2023-02-14T08:19:47;41.97;;;13.10;;
28613;SDS011;15806;53.548;9.964;2023-02-14T08:21:28;30.57;;;10.73;;
28613;SDS011;15806;53.548;9.964;2023-02-14T08:23:09;32.17;;;11.93;;
28613;SDS011;15806;53.548;9.964;2023-02-14T08:24:50;33.77;;;12.33;;
28613;SDS011;15806;53.548;9.964;2023-02-14T08:26:30;36.47;;;11.90;;
28613;SDS011;15806;53.548;9.964;2023-02-14T08:28:11;30.10;;;10.87;;
28613;SDS011;15806;53.548;9.964;2023-02-14T08:29:51;32.07;;;12.47;;
28613;SDS011;15806;53.548;9.964;2023-02-14T08:31:32;31.03;;;11.47;;
28613;SDS011;15806;53.548;9.964;2023-02-14T08:33:12;31.20;;;12.33;;
28613;SDS011;15806;53.548;9.964;2023-02-14T08:34:53;34.30;;;11.40;;
28613;SDS011;15806;53.548;9.964;2023-02-14T08:36:33;31.37;;;11.50;;
28613;SDS011;15806;53.548;9.964;2023-02-14T08:38:14;34.30;;;11.50;;
28613;SDS011;15806;53.548;9.964;2023-02-14T08:39:54;34.33;;;12.33;;
28613;SDS011;15806;53.548;9.964;2023-02-14T08:41:35;32.37;;;10.70;;
28613;SDS011;15806;53.548;9.964;2023-02-14T08:43:15;28.43;;;11.37;;
28613;SDS011;15806;53.548;9.964;2023-02-14T08:44:56;31.17;;;11.37;;
28613;SDS011;15806;53.548;9.964;2023-02-14T08:46:36;31.37;;;11.47;;
28613;SDS011;15806;53.548;9.964;2023-02-14T08:48:17;29.97;;;11.70;;
28613;SDS011;15806;53.548;9.964;2023-02-14T08:49:58;33.90;;;12.43;;
28613;SDS011;15806;53.548;9.964;2023-02-14T08:51:38;31.43;;;11.87;;
28613;SDS011;15806;53.548;9.964;2023-02-14T08:53:19;33.20;;;11.67;;
28613;SDS011;15806;53.548;9.964;2023-02-14T08:55:00;33.80;;;11.37;;
28613;SDS011;15806;53.548;9.964;2023-02-14T08:56:40;34.37;;;12.73;;
28613;SDS011;15806;53.548;9.964;2023-02-14T08:58:21;31.20;;;11.03;;
28613;SDS011;15806;53.548;9.964;2023-02-14T09:00:02;42.13;;;13.30;;
28613;SDS011;15806;53.548;9.964;2023-02-14T09:01:43;30.88;;;11.55;;
28613;SDS011;15806;53.548;9.964;2023-02-14T09:03:24;35.23;;;12.63;;
28613;SDS011;15806;53.548;9.964;2023-02-14T09:05:04;33.93;;;11.77;;
28613;SDS011;15806;53.548;9.964;2023-02-14T09:06:45;34.03;;;11.20;;
28613;SDS011;15806;53.548;9.964;2023-02-14T09:08:25;28.83;;;11.03;;
28613;SDS011;15806;53.548;9.964;2023-02-14T09:10:06;30.50;;;12.10;;
28613;SDS011;15806;53.548;9.964;2023-02-14T09:11:47;27.77;;;11.65;;
28613;SDS011;15806;53.548;9.964;2023-02-14T09:13:27;30.53;;;11.50;;
28613;SDS011;15806;53.548;9.964;2023-02-14T09:15:08;31.23;;;11.47;;
28613;SDS011;15806;53.548;9.964;2023-02-14T09:16:49;29.10;;;12.02;;
28613;SDS011;15806;53.548;9.964;2023-02-14T09:18:30;27.73;;;10.40;;
28613;SDS011;15806;53.548;9.964;2023-02-14T09:20:13;33.47;;;11.47;;
28613;SDS011;15806;53.548;9.964;2023-02-14T09:21:54;33.50;;;11.90;;
28613;SDS011;15806;53.548;9.964;2023-02-14T09:23:35;33.33;;;11.93;;
28613;SDS011;15806;53.548;9.964;2023-02-14T09:25:16;29.15;;;11.40;;
28613;SDS011;15806;53.548;9.964;2023-02-14T09:26:57;26.27;;;9.90;;
28613;SDS011;15806;53.548;9.964;2023-02-14T09:28:38;26.65;;;10.23;;
28613;SDS011;15806;53.548;9.964;2023-02-14T09:30:19;28.20;;;11.40;;
28613;SDS011;15806;53.548;9.964;2023-02-14T09:32:01;29.73;;;9.83;;
28613;SDS011;15806;53.548;9.964;2023-02-14T09:33:42;27.40;;;10.13;;
28613;SDS011;15806;53.548;9.964;2023-02-14T09:35:24;27.23;;;10.85;;
28613;SDS011;15806;53.548;9.964;2023-02-14T09:37:04;26.03;;;10.93;;
28613;SDS011;15806;53.548;9.964;2023-02-14T09:38:45;30.43;;;11.63;;
28613;SDS011;15806;53.548;9.964;2023-02-14T09:40:26;27.92;;;10.13;;
28613;SDS011;15806;53.548;9.964;2023-02-14T09:43:58;24.57;;;11.53;;
28613;SDS011;15806;53.548;9.964;2023-02-14T09:45:45;28.77;;;11.90;;
28613;SDS011;15806;53.548;9.964;2023-02-14T09:49:37;29.80;;;11.52;;
28613;SDS011;15806;53.548;9.964;2023-02-14T09:51:19;33.20;;;12.43;;
28613;SDS011;15806;53.548;9.964;2023-02-14T09:53:05;29.45;;;11.57;;
28613;SDS011;15806;53.548;9.964;2023-02-14T09:55:00;29.42;;;11.82;;
28613;SDS011;15806;53.548;9.964;2023-02-14T09:56:48;30.27;;;10.80;;
28613;SDS011;15806;53.548;9.964;2023-02-14T10:00:53;32.50;;;11.02;;
28613;SDS011;15806;53.548;9.964;2023-02-14T10:02:46;27.80;;;10.98;;
28613;SDS011;15806;53.548;9.964;2023-02-14T10:10:19;26.25;;;11.43;;
28613;SDS011;15806;53.548;9.964;2023-02-14T10:12:02;29.98;;;11.65;;
28613;SDS011;15806;53.548;9.964;2023-02-14T10:13:49;31.65;;;11.35;;
28613;SDS011;15806;53.548;9.964;2023-02-14T10:15:38;31.80;;;12.10;;
28613;SDS011;15806;53.548;9.964;2023-02-14T10:19:16;27.80;;;11.57;;
28613;SDS011;15806;53.548;9.964;2023-02-14T10:21:04;30.33;;;12.13;;
28613;SDS011;15806;53.548;9.964;2023-02-14T10:22:56;28.20;;;11.18;;
28613;SDS011;15806;53.548;9.964;2023-02-14T10:25:00;29.40;;;10.77;;
28613;SDS011;15806;53.548;9.964;2023-02-14T10:26:45;28.88;;;12.00;;
28613;SDS011;15806;53.548;9.964;2023-02-14T10:28:36;26.42;;;10.48;;
28613;SDS011;15806;53.548;9.964;2023-02-14T10:30:26;31.50;;;11.57;;
28613;SDS011;15806;53.548;9.964;2023-02-14T10:32:13;33.85;;;12.60;;
28613;SDS011;15806;53.548;9.964;2023-02-14T10:34:03;31.75;;;11.80;;
28613;SDS011;15806;53.548;9.964;2023-02-14T10:37:31;32.42;;;12.02;;
28613;SDS011;15806;53.548;9.964;2023-02-14T10:44:03;26.27;;;10.63;;
28613;SDS011;15806;53.548;9.964;2023-02-14T10:48:19;29.50;;;11.65;;
28613;SDS011;15806;53.548;9.964;2023-02-14T10:50:18;30.92;;;11.38;;
28613;SDS011;15806;53.548;9.964;2023-02-14T10:52:14;28.88;;;11.82;;
28613;SDS011;15806;53.548;9.964;2023-02-14T10:56:07;32.28;;;12.07;;
28613;SDS011;15806;53.548;9.964;2023-02-14T10:57:58;29.00;;;10.75;;
28613;SDS011;15806;53.548;9.964;2023-02-14T10:59:57;33.63;;;11.25;;
28613;SDS011;15806;53.548;9.964;2023-02-14T11:01:40;32.75;;;12.38;;
28613;SDS011;15806;53.548;9.964;2023-02-14T11:03:21;33.30;;;12.37;;
28613;SDS011;15806;53.548;9.964;2023-02-14T11:05:03;30.73;;;10.95;;
28613;SDS011;15806;53.548;9.964;2023-02-14T11:06:44;31.60;;;12.27;;
28613;SDS011;15806;53.548;9.964;2023-02-14T11:08:30;31.80;;;12.60;;
28613;SDS011;15806;53.548;9.964;2023-02-14T11:10:16;32.47;;;12.65;;
28613;SDS011;15806;53.548;9.964;2023-02-14T11:12:03;34.38;;;10.93;;
28613;SDS011;15806;53.548;9.964;2023-02-14T11:13:43;31.23;;;11.57;;
28613;SDS011;15806;53.548;9.964;2023-02-14T11:15:37;29.40;;;11.95;;
28613;SDS011;15806;53.548;9.964;2023-02-14T11:17:28;32.45;;;12.55;;
28613;SDS011;15806;53.548;9.964;2023-02-14T11:21:07;31.40;;;11.95;;
28613;SDS011;15806;53.548;9.964;2023-02-14T11:22:50;27.88;;;11.75;;